sensor_id;sensor_type;location;lat;lon;timestamp;temperature;humidity
22290;DHT22;11313;50.116;8.424;2024-01-07T00:00:57;26.60;46.10
22290;DHT22;11313;50.116;8.424;2024-01-07T00:03:23;26.60;46.40
22290;DHT22;11313;50.116;8.424;2024-01-07T00:05:48;26.60;46.50
22290;DHT22;11313;50.116;8.424;2024-01-07T00:08:14;26.50;46.80
22290;DHT22;11313;50.116;8.424;2024-01-07T00:10:39;26.50;47.60
22290;DHT22;11313;50.116;8.424;2024-01-07T00:13:05;26.50;47.00
22290;DHT22;11313;50.116;8.424;2024-01-07T00:15:31;26.40;47.20
22290;DHT22;11313;50.116;8.424;2024-01-07T00:17:56;26.40;47.30
22290;DHT22;11313;50.116;8.424;2024-01-07T00:20:22;26.30;47.30
22290;DHT22;11313;50.116;8.424;2024-01-07T00:22:47;26.30;47.50
22290;DHT22;11313;50.116;8.424;2024-01-07T00:25:13;26.30;47.50
22290;DHT22;11313;50.116;8.424;2024-01-07T00:27:38;26.40;47.70
22290;DHT22;11313;50.116;8.424;2024-01-07T00:30:04;26.30;47.70
22290;DHT22;11313;50.116;8.424;2024-01-07T00:32:30;26.30;47.60
22290;DHT22;11313;50.116;8.424;2024-01-07T00:34:55;26.20;47.70
22290;DHT22;11313;50.116;8.424;2024-01-07T00:37:21;26.30;47.80
22290;DHT22;11313;50.116;8.424;2024-01-07T00:39:46;26.30;47.80
22290;DHT22;11313;50.116;8.424;2024-01-07T00:42:12;26.40;47.80
22290;DHT22;11313;50.116;8.424;2024-01-07T00:44:37;26.40;48.00
22290;DHT22;11313;50.116;8.424;2024-01-07T00:47:03;26.40;45.70
22290;DHT22;11313;50.116;8.424;2024-01-07T00:49:29;26.60;46.90
22290;DHT22;11313;50.116;8.424;2024-01-07T00:51:54;26.50;47.50
22290;DHT22;11313;50.116;8.424;2024-01-07T00:54:19;26.50;47.60
22290;DHT22;11313;50.116;8.424;2024-01-07T00:56:45;26.50;47.70
22290;DHT22;11313;50.116;8.424;2024-01-07T00:59:11;26.60;48.00
22290;DHT22;11313;50.116;8.424;2024-01-07T01:01:36;26.50;48.00
22290;DHT22;11313;50.116;8.424;2024-01-07T01:04:02;26.50;47.90
22290;DHT22;11313;50.116;8.424;2024-01-07T01:06:27;26.60;48.00
22290;DHT22;11313;50.116;8.424;2024-01-07T01:08:53;26.50;47.90
22290;DHT22;11313;50.116;8.424;2024-01-07T01:11:18;26.50;47.90
22290;DHT22;11313;50.116;8.424;2024-01-07T01:13:44;26.60;47.90
22290;DHT22;11313;50.116;8.424;2024-01-07T01:16:09;26.60;47.90
22290;DHT22;11313;50.116;8.424;2024-01-07T01:18:35;26.70;47.80
22290;DHT22;11313;50.116;8.424;2024-01-07T01:21:00;26.60;47.60
22290;DHT22;11313;50.116;8.424;2024-01-07T01:23:26;26.60;47.50
22290;DHT22;11313;50.116;8.424;2024-01-07T01:25:51;26.70;47.60
22290;DHT22;11313;50.116;8.424;2024-01-07T01:28:17;26.70;47.50
22290;DHT22;11313;50.116;8.424;2024-01-07T01:30:42;26.70;47.50
22290;DHT22;11313;50.116;8.424;2024-01-07T01:33:08;26.70;47.40
22290;DHT22;11313;50.116;8.424;2024-01-07T01:35:33;26.70;47.20
22290;DHT22;11313;50.116;8.424;2024-01-07T01:37:59;26.70;47.10
22290;DHT22;11313;50.116;8.424;2024-01-07T01:40:24;26.60;47.10
22290;DHT22;11313;50.116;8.424;2024-01-07T01:42:50;26.60;47.10
22290;DHT22;11313;50.116;8.424;2024-01-07T01:45:15;26.50;47.00
22290;DHT22;11313;50.116;8.424;2024-01-07T01:47:41;26.60;47.00
22290;DHT22;11313;50.116;8.424;2024-01-07T01:50:08;26.60;46.90
22290;DHT22;11313;50.116;8.424;2024-01-07T01:52:34;26.60;46.90
22290;DHT22;11313;50.116;8.424;2024-01-07T01:55:00;26.50;46.80
22290;DHT22;11313;50.116;8.424;2024-01-07T01:57:33;26.60;46.90
22290;DHT22;11313;50.116;8.424;2024-01-07T02:00:02;26.50;47.30
22290;DHT22;11313;50.116;8.424;2024-01-07T02:02:30;26.50;46.70
22290;DHT22;11313;50.116;8.424;2024-01-07T02:04:57;26.50;46.60
22290;DHT22;11313;50.116;8.424;2024-01-07T02:07:24;26.50;46.60
22290;DHT22;11313;50.116;8.424;2024-01-07T02:09:50;26.50;46.60
22290;DHT22;11313;50.116;8.424;2024-01-07T02:12:15;26.40;46.50
22290;DHT22;11313;50.116;8.424;2024-01-07T02:14:41;26.20;46.40
22290;DHT22;11313;50.116;8.424;2024-01-07T02:17:07;26.40;46.50
22290;DHT22;11313;50.116;8.424;2024-01-07T02:19:32;26.40;46.50
22290;DHT22;11313;50.116;8.424;2024-01-07T02:21:58;26.40;46.40
22290;DHT22;11313;50.116;8.424;2024-01-07T02:24:23;26.40;46.40
22290;DHT22;11313;50.116;8.424;2024-01-07T02:26:50;26.40;46.40
22290;DHT22;11313;50.116;8.424;2024-01-07T02:29:15;26.40;46.40
22290;DHT22;11313;50.116;8.424;2024-01-07T02:31:41;26.40;46.30
22290;DHT22;11313;50.116;8.424;2024-01-07T02:34:08;26.40;46.30
22290;DHT22;11313;50.116;8.424;2024-01-07T02:36:34;26.40;46.30
22290;DHT22;11313;50.116;8.424;2024-01-07T02:38:59;26.40;46.20
22290;DHT22;11313;50.116;8.424;2024-01-07T02:41:25;26.30;46.10
22290;DHT22;11313;50.116;8.424;2024-01-07T02:43:52;26.30;46.10
22290;DHT22;11313;50.116;8.424;2024-01-07T02:46:17;26.40;46.20
22290;DHT22;11313;50.116;8.424;2024-01-07T02:48:43;26.40;46.10
22290;DHT22;11313;50.116;8.424;2024-01-07T02:51:08;26.40;46.10
22290;DHT22;11313;50.116;8.424;2024-01-07T02:53:34;26.40;46.00
22290;DHT22;11313;50.116;8.424;2024-01-07T02:55:59;26.40;46.00
22290;DHT22;11313;50.116;8.424;2024-01-07T02:58:25;26.30;45.90
22290;DHT22;11313;50.116;8.424;2024-01-07T03:00:51;26.40;45.90
22290;DHT22;11313;50.116;8.424;2024-01-07T03:03:16;26.40;45.90
22290;DHT22;11313;50.116;8.424;2024-01-07T03:05:42;26.40;45.90
22290;DHT22;11313;50.116;8.424;2024-01-07T03:08:10;26.40;45.80
22290;DHT22;11313;50.116;8.424;2024-01-07T03:10:35;26.40;45.80
22290;DHT22;11313;50.116;8.424;2024-01-07T03:13:01;26.40;45.70
22290;DHT22;11313;50.116;8.424;2024-01-07T03:15:28;26.40;45.70
22290;DHT22;11313;50.116;8.424;2024-01-07T03:17:53;26.40;45.70
22290;DHT22;11313;50.116;8.424;2024-01-07T03:20:19;26.40;45.70
22290;DHT22;11313;50.116;8.424;2024-01-07T03:22:44;26.40;45.60
22290;DHT22;11313;50.116;8.424;2024-01-07T03:25:10;26.40;45.60
22290;DHT22;11313;50.116;8.424;2024-01-07T03:27:35;26.50;45.60
22290;DHT22;11313;50.116;8.424;2024-01-07T03:30:01;26.40;45.50
22290;DHT22;11313;50.116;8.424;2024-01-07T03:32:27;26.50;45.50
22290;DHT22;11313;50.116;8.424;2024-01-07T03:34:52;26.40;45.40
22290;DHT22;11313;50.116;8.424;2024-01-07T03:37:18;26.50;45.40
22290;DHT22;11313;50.116;8.424;2024-01-07T03:39:45;26.50;45.40
22290;DHT22;11313;50.116;8.424;2024-01-07T03:42:11;26.40;45.30
22290;DHT22;11313;50.116;8.424;2024-01-07T03:44:40;26.50;45.30
22290;DHT22;11313;50.116;8.424;2024-01-07T03:47:08;26.50;45.30
22290;DHT22;11313;50.116;8.424;2024-01-07T03:49:36;26.50;45.30
22290;DHT22;11313;50.116;8.424;2024-01-07T03:52:02;26.60;45.30
22290;DHT22;11313;50.116;8.424;2024-01-07T03:54:27;26.50;45.20
22290;DHT22;11313;50.116;8.424;2024-01-07T03:56:52;26.50;45.20
22290;DHT22;11313;50.116;8.424;2024-01-07T03:59:18;26.50;45.20
22290;DHT22;11313;50.116;8.424;2024-01-07T04:01:44;26.50;45.10
22290;DHT22;11313;50.116;8.424;2024-01-07T04:04:09;26.50;45.10
22290;DHT22;11313;50.116;8.424;2024-01-07T04:06:35;26.50;45.10
22290;DHT22;11313;50.116;8.424;2024-01-07T04:09:00;26.50;45.10
22290;DHT22;11313;50.116;8.424;2024-01-07T04:11:26;26.50;45.10
22290;DHT22;11313;50.116;8.424;2024-01-07T04:13:51;26.50;45.10
22290;DHT22;11313;50.116;8.424;2024-01-07T04:16:18;26.50;45.20
22290;DHT22;11313;50.116;8.424;2024-01-07T04:18:44;26.40;45.00
22290;DHT22;11313;50.116;8.424;2024-01-07T04:21:10;26.50;45.10
22290;DHT22;11313;50.116;8.424;2024-01-07T04:23:36;26.50;45.10
22290;DHT22;11313;50.116;8.424;2024-01-07T04:26:02;26.50;45.10
22290;DHT22;11313;50.116;8.424;2024-01-07T04:28:27;26.50;45.00
22290;DHT22;11313;50.116;8.424;2024-01-07T04:30:52;26.50;45.00
22290;DHT22;11313;50.116;8.424;2024-01-07T04:33:18;26.50;45.10
22290;DHT22;11313;50.116;8.424;2024-01-07T04:35:43;26.40;45.00
22290;DHT22;11313;50.116;8.424;2024-01-07T04:38:09;26.40;45.00
22290;DHT22;11313;50.116;8.424;2024-01-07T04:40:34;26.40;45.00
22290;DHT22;11313;50.116;8.424;2024-01-07T04:43:00;26.40;45.70
22290;DHT22;11313;50.116;8.424;2024-01-07T04:45:25;26.40;45.00
22290;DHT22;11313;50.116;8.424;2024-01-07T04:47:51;26.40;45.10
22290;DHT22;11313;50.116;8.424;2024-01-07T04:50:16;26.40;45.10
22290;DHT22;11313;50.116;8.424;2024-01-07T04:52:45;26.30;45.00
22290;DHT22;11313;50.116;8.424;2024-01-07T04:55:11;26.40;45.10
22290;DHT22;11313;50.116;8.424;2024-01-07T04:57:37;26.40;45.10
22290;DHT22;11313;50.116;8.424;2024-01-07T05:00:03;26.30;45.00
22290;DHT22;11313;50.116;8.424;2024-01-07T05:02:29;26.30;45.10
22290;DHT22;11313;50.116;8.424;2024-01-07T05:04:54;26.30;45.10
22290;DHT22;11313;50.116;8.424;2024-01-07T05:07:20;26.30;45.10
22290;DHT22;11313;50.116;8.424;2024-01-07T05:09:45;26.30;45.10
22290;DHT22;11313;50.116;8.424;2024-01-07T05:12:12;26.30;45.00
22290;DHT22;11313;50.116;8.424;2024-01-07T05:14:37;26.30;45.00
22290;DHT22;11313;50.116;8.424;2024-01-07T05:17:03;26.30;44.90
22290;DHT22;11313;50.116;8.424;2024-01-07T05:19:29;26.30;45.00
22290;DHT22;11313;50.116;8.424;2024-01-07T05:21:55;26.30;44.90
22290;DHT22;11313;50.116;8.424;2024-01-07T05:24:21;26.30;44.90
22290;DHT22;11313;50.116;8.424;2024-01-07T05:26:47;26.30;44.90
22290;DHT22;11313;50.116;8.424;2024-01-07T05:29:13;26.30;44.90
22290;DHT22;11313;50.116;8.424;2024-01-07T05:31:39;26.30;45.00
22290;DHT22;11313;50.116;8.424;2024-01-07T05:34:05;26.30;44.90
22290;DHT22;11313;50.116;8.424;2024-01-07T05:36:30;26.30;44.90
22290;DHT22;11313;50.116;8.424;2024-01-07T05:38:56;26.30;44.90
22290;DHT22;11313;50.116;8.424;2024-01-07T05:41:22;26.30;45.50
22290;DHT22;11313;50.116;8.424;2024-01-07T05:43:47;26.30;44.90
22290;DHT22;11313;50.116;8.424;2024-01-07T05:46:13;26.30;44.90
22290;DHT22;11313;50.116;8.424;2024-01-07T05:48:46;26.30;44.90
22290;DHT22;11313;50.116;8.424;2024-01-07T05:51:12;26.30;44.90
22290;DHT22;11313;50.116;8.424;2024-01-07T05:53:39;26.30;44.90
22290;DHT22;11313;50.116;8.424;2024-01-07T05:56:04;26.30;44.80
22290;DHT22;11313;50.116;8.424;2024-01-07T05:58:30;26.30;44.80
22290;DHT22;11313;50.116;8.424;2024-01-07T06:00:56;26.30;44.80
22290;DHT22;11313;50.116;8.424;2024-01-07T06:03:21;26.30;44.80
22290;DHT22;11313;50.116;8.424;2024-01-07T06:05:47;26.30;44.90
22290;DHT22;11313;50.116;8.424;2024-01-07T06:08:13;26.30;44.80
22290;DHT22;11313;50.116;8.424;2024-01-07T06:10:39;26.40;44.80
22290;DHT22;11313;50.116;8.424;2024-01-07T06:13:05;26.30;44.70
22290;DHT22;11313;50.116;8.424;2024-01-07T06:15:31;26.30;44.70
22290;DHT22;11313;50.116;8.424;2024-01-07T06:17:56;26.30;44.70
22290;DHT22;11313;50.116;8.424;2024-01-07T06:20:22;26.30;44.70
22290;DHT22;11313;50.116;8.424;2024-01-07T06:22:48;26.30;44.70
22290;DHT22;11313;50.116;8.424;2024-01-07T06:25:13;26.40;44.70
22290;DHT22;11313;50.116;8.424;2024-01-07T06:27:39;26.40;44.70
22290;DHT22;11313;50.116;8.424;2024-01-07T06:30:05;26.30;44.60
22290;DHT22;11313;50.116;8.424;2024-01-07T06:32:31;26.30;44.60
22290;DHT22;11313;50.116;8.424;2024-01-07T06:35:00;26.40;44.70
22290;DHT22;11313;50.116;8.424;2024-01-07T06:37:26;26.40;44.60
22290;DHT22;11313;50.116;8.424;2024-01-07T06:39:54;26.40;44.60
22290;DHT22;11313;50.116;8.424;2024-01-07T06:42:20;26.40;44.60
22290;DHT22;11313;50.116;8.424;2024-01-07T06:44:45;26.40;44.50
22290;DHT22;11313;50.116;8.424;2024-01-07T06:47:11;26.50;44.60
22290;DHT22;11313;50.116;8.424;2024-01-07T06:49:36;26.50;44.60
22290;DHT22;11313;50.116;8.424;2024-01-07T06:52:02;26.40;44.50
22290;DHT22;11313;50.116;8.424;2024-01-07T06:54:28;26.40;44.40
22290;DHT22;11313;50.116;8.424;2024-01-07T06:56:53;26.40;44.50
22290;DHT22;11313;50.116;8.424;2024-01-07T06:59:19;26.40;44.50
22290;DHT22;11313;50.116;8.424;2024-01-07T07:01:44;26.40;44.40
22290;DHT22;11313;50.116;8.424;2024-01-07T07:04:10;26.40;44.40
22290;DHT22;11313;50.116;8.424;2024-01-07T07:06:35;26.50;44.50
22290;DHT22;11313;50.116;8.424;2024-01-07T07:09:01;26.40;44.40
22290;DHT22;11313;50.116;8.424;2024-01-07T07:11:26;26.40;44.40
22290;DHT22;11313;50.116;8.424;2024-01-07T07:13:52;26.40;44.40
22290;DHT22;11313;50.116;8.424;2024-01-07T07:16:17;26.40;44.40
22290;DHT22;11313;50.116;8.424;2024-01-07T07:18:43;26.40;44.40
22290;DHT22;11313;50.116;8.424;2024-01-07T07:21:08;26.40;44.40
22290;DHT22;11313;50.116;8.424;2024-01-07T07:23:34;26.40;44.40
22290;DHT22;11313;50.116;8.424;2024-01-07T07:25:59;26.40;44.40
22290;DHT22;11313;50.116;8.424;2024-01-07T07:28:25;26.50;44.50
22290;DHT22;11313;50.116;8.424;2024-01-07T07:30:52;26.40;44.40
22290;DHT22;11313;50.116;8.424;2024-01-07T07:33:18;26.40;44.40
22290;DHT22;11313;50.116;8.424;2024-01-07T07:35:43;26.40;44.40
22290;DHT22;11313;50.116;8.424;2024-01-07T07:38:09;26.40;44.50
22290;DHT22;11313;50.116;8.424;2024-01-07T07:40:34;26.40;44.50
22290;DHT22;11313;50.116;8.424;2024-01-07T07:43:00;26.40;44.40
22290;DHT22;11313;50.116;8.424;2024-01-07T07:45:25;26.40;44.40
22290;DHT22;11313;50.116;8.424;2024-01-07T07:47:51;26.40;44.40
22290;DHT22;11313;50.116;8.424;2024-01-07T07:50:16;26.40;44.50
22290;DHT22;11313;50.116;8.424;2024-01-07T07:52:42;26.30;44.40
22290;DHT22;11313;50.116;8.424;2024-01-07T07:55:11;26.30;44.40
22290;DHT22;11313;50.116;8.424;2024-01-07T07:57:37;26.30;44.50
22290;DHT22;11313;50.116;8.424;2024-01-07T08:00:06;26.30;44.50
22290;DHT22;11313;50.116;8.424;2024-01-07T08:02:32;26.30;44.50
22290;DHT22;11313;50.116;8.424;2024-01-07T08:04:58;26.20;44.40
22290;DHT22;11313;50.116;8.424;2024-01-07T08:07:23;26.30;44.50
22290;DHT22;11313;50.116;8.424;2024-01-07T08:09:49;26.30;45.10
22290;DHT22;11313;50.116;8.424;2024-01-07T08:12:14;26.30;44.50
22290;DHT22;11313;50.116;8.424;2024-01-07T08:14:40;26.30;44.40
22290;DHT22;11313;50.116;8.424;2024-01-07T08:17:07;26.30;44.50
22290;DHT22;11313;50.116;8.424;2024-01-07T08:19:32;26.30;44.50
22290;DHT22;11313;50.116;8.424;2024-01-07T08:21:58;26.30;44.40
22290;DHT22;11313;50.116;8.424;2024-01-07T08:24:24;26.20;44.30
22290;DHT22;11313;50.116;8.424;2024-01-07T08:26:49;26.30;44.40
22290;DHT22;11313;50.116;8.424;2024-01-07T08:29:15;26.30;44.40
22290;DHT22;11313;50.116;8.424;2024-01-07T08:31:40;26.30;44.40
22290;DHT22;11313;50.116;8.424;2024-01-07T08:34:07;26.30;44.30
22290;DHT22;11313;50.116;8.424;2024-01-07T08:36:33;26.30;44.30
22290;DHT22;11313;50.116;8.424;2024-01-07T08:38:58;26.30;44.30
22290;DHT22;11313;50.116;8.424;2024-01-07T08:41:24;26.30;44.30
22290;DHT22;11313;50.116;8.424;2024-01-07T08:43:49;26.30;44.20
22290;DHT22;11313;50.116;8.424;2024-01-07T08:46:15;26.30;44.20
22290;DHT22;11313;50.116;8.424;2024-01-07T08:48:40;26.30;44.20
22290;DHT22;11313;50.116;8.424;2024-01-07T08:51:06;26.30;44.20
22290;DHT22;11313;50.116;8.424;2024-01-07T08:53:32;26.30;44.80
22290;DHT22;11313;50.116;8.424;2024-01-07T08:55:58;26.40;44.20
22290;DHT22;11313;50.116;8.424;2024-01-07T08:58:23;26.30;44.10
22290;DHT22;11313;50.116;8.424;2024-01-07T09:00:49;26.40;44.10
22290;DHT22;11313;50.116;8.424;2024-01-07T09:03:14;26.40;44.10
22290;DHT22;11313;50.116;8.424;2024-01-07T09:05:40;26.40;44.10
22290;DHT22;11313;50.116;8.424;2024-01-07T09:08:06;26.40;43.90
22290;DHT22;11313;50.116;8.424;2024-01-07T09:10:32;26.50;44.00
22290;DHT22;11313;50.116;8.424;2024-01-07T09:12:59;26.30;43.80
22290;DHT22;11313;50.116;8.424;2024-01-07T09:15:25;26.40;44.00
22290;DHT22;11313;50.116;8.424;2024-01-07T09:17:50;26.50;44.00
22290;DHT22;11313;50.116;8.424;2024-01-07T09:20:16;26.50;43.90
22290;DHT22;11313;50.116;8.424;2024-01-07T09:22:41;26.50;43.90
22290;DHT22;11313;50.116;8.424;2024-01-07T09:25:09;26.60;44.00
22290;DHT22;11313;50.116;8.424;2024-01-07T09:27:34;26.60;40.30
22290;DHT22;11313;50.116;8.424;2024-01-07T09:30:00;26.60;40.60
22290;DHT22;11313;50.116;8.424;2024-01-07T09:32:26;26.60;40.30
22290;DHT22;11313;50.116;8.424;2024-01-07T09:34:51;26.60;40.40
22290;DHT22;11313;50.116;8.424;2024-01-07T09:37:18;26.70;40.50
22290;DHT22;11313;50.116;8.424;2024-01-07T09:39:43;26.60;40.00
22290;DHT22;11313;50.116;8.424;2024-01-07T09:42:14;26.60;39.90
22290;DHT22;11313;50.116;8.424;2024-01-07T09:44:44;26.70;40.10
22290;DHT22;11313;50.116;8.424;2024-01-07T09:47:14;26.60;40.20
22290;DHT22;11313;50.116;8.424;2024-01-07T09:49:40;26.50;40.30
22290;DHT22;11313;50.116;8.424;2024-01-07T09:52:08;26.50;40.10
22290;DHT22;11313;50.116;8.424;2024-01-07T09:54:36;26.50;40.30
22290;DHT22;11313;50.116;8.424;2024-01-07T09:57:03;26.50;40.10
22290;DHT22;11313;50.116;8.424;2024-01-07T09:59:29;26.40;40.20
22290;DHT22;11313;50.116;8.424;2024-01-07T10:01:56;26.40;40.20
22290;DHT22;11313;50.116;8.424;2024-01-07T10:04:23;26.40;40.10
22290;DHT22;11313;50.116;8.424;2024-01-07T10:06:49;26.40;39.60
22290;DHT22;11313;50.116;8.424;2024-01-07T10:09:16;26.40;39.40
22290;DHT22;11313;50.116;8.424;2024-01-07T10:11:43;26.30;39.20
22290;DHT22;11313;50.116;8.424;2024-01-07T10:14:09;26.30;39.10
22290;DHT22;11313;50.116;8.424;2024-01-07T10:16:35;26.30;39.00
22290;DHT22;11313;50.116;8.424;2024-01-07T10:19:00;26.30;38.90
22290;DHT22;11313;50.116;8.424;2024-01-07T10:21:26;26.30;38.80
22290;DHT22;11313;50.116;8.424;2024-01-07T10:24:10;26.30;38.90
22290;DHT22;11313;50.116;8.424;2024-01-07T10:26:39;26.30;39.00
22290;DHT22;11313;50.116;8.424;2024-01-07T10:29:06;26.30;38.80
22290;DHT22;11313;50.116;8.424;2024-01-07T10:31:32;26.20;39.00
22290;DHT22;11313;50.116;8.424;2024-01-07T10:33:57;26.30;38.90
22290;DHT22;11313;50.116;8.424;2024-01-07T10:36:24;26.20;38.90
22290;DHT22;11313;50.116;8.424;2024-01-07T10:38:51;26.20;38.80
22290;DHT22;11313;50.116;8.424;2024-01-07T10:41:20;26.20;38.90
22290;DHT22;11313;50.116;8.424;2024-01-07T10:43:49;26.20;39.30
22290;DHT22;11313;50.116;8.424;2024-01-07T10:46:15;26.30;39.00
22290;DHT22;11313;50.116;8.424;2024-01-07T10:49:07;26.30;39.00
22290;DHT22;11313;50.116;8.424;2024-01-07T10:51:36;26.20;38.90
22290;DHT22;11313;50.116;8.424;2024-01-07T10:54:01;26.40;39.00
22290;DHT22;11313;50.116;8.424;2024-01-07T10:56:34;26.30;39.10
22290;DHT22;11313;50.116;8.424;2024-01-07T10:59:03;26.30;39.10
22290;DHT22;11313;50.116;8.424;2024-01-07T11:01:29;26.20;38.90
22290;DHT22;11313;50.116;8.424;2024-01-07T11:06:52;26.30;39.20
22290;DHT22;11313;50.116;8.424;2024-01-07T11:09:26;26.30;38.90
22290;DHT22;11313;50.116;8.424;2024-01-07T11:11:55;26.30;38.90
22290;DHT22;11313;50.116;8.424;2024-01-07T11:14:36;26.30;38.90
22290;DHT22;11313;50.116;8.424;2024-01-07T11:17:03;26.30;39.00
22290;DHT22;11313;50.116;8.424;2024-01-07T11:19:29;26.30;38.90
22290;DHT22;11313;50.116;8.424;2024-01-07T11:24:48;26.30;39.20
22290;DHT22;11313;50.116;8.424;2024-01-07T11:27:15;26.30;39.20
22290;DHT22;11313;50.116;8.424;2024-01-07T11:29:41;26.30;38.80
22290;DHT22;11313;50.116;8.424;2024-01-07T11:32:06;26.40;39.50
22290;DHT22;11313;50.116;8.424;2024-01-07T11:34:39;26.30;39.50
22290;DHT22;11313;50.116;8.424;2024-01-07T11:37:10;26.50;39.50
22290;DHT22;11313;50.116;8.424;2024-01-07T11:39:36;26.50;40.20
22290;DHT22;11313;50.116;8.424;2024-01-07T11:42:03;26.50;39.60
22290;DHT22;11313;50.116;8.424;2024-01-07T11:44:29;26.50;39.70
22290;DHT22;11313;50.116;8.424;2024-01-07T11:46:56;26.50;39.80
22290;DHT22;11313;50.116;8.424;2024-01-07T11:49:21;26.50;39.80
22290;DHT22;11313;50.116;8.424;2024-01-07T11:51:47;26.50;39.90
22290;DHT22;11313;50.116;8.424;2024-01-07T11:54:12;26.50;39.90
22290;DHT22;11313;50.116;8.424;2024-01-07T11:56:39;26.50;39.90
22290;DHT22;11313;50.116;8.424;2024-01-07T11:59:05;26.50;40.00
22290;DHT22;11313;50.116;8.424;2024-01-07T12:01:31;26.50;40.10
22290;DHT22;11313;50.116;8.424;2024-01-07T12:04:04;26.50;40.20
22290;DHT22;11313;50.116;8.424;2024-01-07T12:06:29;26.50;40.20
22290;DHT22;11313;50.116;8.424;2024-01-07T12:08:55;26.50;40.30
22290;DHT22;11313;50.116;8.424;2024-01-07T12:11:21;26.40;40.30
22290;DHT22;11313;50.116;8.424;2024-01-07T12:13:47;26.50;40.40
22290;DHT22;11313;50.116;8.424;2024-01-07T12:16:12;26.40;40.30
22290;DHT22;11313;50.116;8.424;2024-01-07T12:18:39;26.50;40.40
22290;DHT22;11313;50.116;8.424;2024-01-07T12:21:04;26.40;40.40
22290;DHT22;11313;50.116;8.424;2024-01-07T12:23:37;26.40;40.50
22290;DHT22;11313;50.116;8.424;2024-01-07T12:26:10;26.40;40.50
22290;DHT22;11313;50.116;8.424;2024-01-07T12:28:39;26.40;40.60
22290;DHT22;11313;50.116;8.424;2024-01-07T12:31:05;26.40;40.60
22290;DHT22;11313;50.116;8.424;2024-01-07T12:33:31;26.40;40.70
22290;DHT22;11313;50.116;8.424;2024-01-07T12:36:01;26.40;40.70
22290;DHT22;11313;50.116;8.424;2024-01-07T12:38:27;26.30;40.70
22290;DHT22;11313;50.116;8.424;2024-01-07T12:40:53;26.30;40.70
22290;DHT22;11313;50.116;8.424;2024-01-07T12:43:19;26.40;40.90
22290;DHT22;11313;50.116;8.424;2024-01-07T12:45:45;26.30;40.90
22290;DHT22;11313;50.116;8.424;2024-01-07T12:48:14;26.30;41.00
22290;DHT22;11313;50.116;8.424;2024-01-07T12:50:40;26.30;41.00
22290;DHT22;11313;50.116;8.424;2024-01-07T12:53:06;26.10;41.00
22290;DHT22;11313;50.116;8.424;2024-01-07T12:55:31;26.30;41.10
22290;DHT22;11313;50.116;8.424;2024-01-07T12:57:57;26.30;41.70
22290;DHT22;11313;50.116;8.424;2024-01-07T13:00:24;26.30;41.10
22290;DHT22;11313;50.116;8.424;2024-01-07T13:02:50;26.30;41.00
22290;DHT22;11313;50.116;8.424;2024-01-07T13:05:16;26.30;41.10
22290;DHT22;11313;50.116;8.424;2024-01-07T13:07:42;26.30;41.10
22290;DHT22;11313;50.116;8.424;2024-01-07T13:10:08;26.20;41.10
22290;DHT22;11313;50.116;8.424;2024-01-07T13:12:35;26.30;41.20
22290;DHT22;11313;50.116;8.424;2024-01-07T13:15:00;26.30;41.10
22290;DHT22;11313;50.116;8.424;2024-01-07T13:17:26;26.30;41.10
22290;DHT22;11313;50.116;8.424;2024-01-07T13:19:52;26.30;41.10
22290;DHT22;11313;50.116;8.424;2024-01-07T13:22:18;26.30;41.10
22290;DHT22;11313;50.116;8.424;2024-01-07T13:24:43;26.30;41.10
22290;DHT22;11313;50.116;8.424;2024-01-07T13:27:09;26.30;41.10
22290;DHT22;11313;50.116;8.424;2024-01-07T13:29:34;26.10;41.10
22290;DHT22;11313;50.116;8.424;2024-01-07T13:32:00;26.30;41.20
22290;DHT22;11313;50.116;8.424;2024-01-07T13:34:26;26.40;41.20
22290;DHT22;11313;50.116;8.424;2024-01-07T13:36:52;26.30;41.20
22290;DHT22;11313;50.116;8.424;2024-01-07T13:39:17;26.30;41.20
22290;DHT22;11313;50.116;8.424;2024-01-07T13:41:43;26.30;41.20
22290;DHT22;11313;50.116;8.424;2024-01-07T13:44:09;26.40;41.30
22290;DHT22;11313;50.116;8.424;2024-01-07T13:46:43;26.30;41.20
22290;DHT22;11313;50.116;8.424;2024-01-07T13:49:09;26.40;41.30
22290;DHT22;11313;50.116;8.424;2024-01-07T13:51:35;26.40;41.20
22290;DHT22;11313;50.116;8.424;2024-01-07T13:54:02;26.30;41.20
22290;DHT22;11313;50.116;8.424;2024-01-07T13:56:29;26.40;41.30
22290;DHT22;11313;50.116;8.424;2024-01-07T13:58:54;26.40;41.30
22290;DHT22;11313;50.116;8.424;2024-01-07T14:01:21;26.40;41.20
22290;DHT22;11313;50.116;8.424;2024-01-07T14:03:46;26.40;41.20
22290;DHT22;11313;50.116;8.424;2024-01-07T14:06:12;26.40;41.20
22290;DHT22;11313;50.116;8.424;2024-01-07T14:08:38;26.50;41.30
22290;DHT22;11313;50.116;8.424;2024-01-07T14:11:04;26.40;41.20
22290;DHT22;11313;50.116;8.424;2024-01-07T14:13:32;26.40;41.30
22290;DHT22;11313;50.116;8.424;2024-01-07T14:15:58;26.40;41.20
22290;DHT22;11313;50.116;8.424;2024-01-07T14:18:23;26.50;41.30
22290;DHT22;11313;50.116;8.424;2024-01-07T14:20:49;26.30;41.20
22290;DHT22;11313;50.116;8.424;2024-01-07T14:23:15;26.50;41.40
22290;DHT22;11313;50.116;8.424;2024-01-07T14:25:40;26.40;41.30
22290;DHT22;11313;50.116;8.424;2024-01-07T14:28:07;26.50;41.50
22290;DHT22;11313;50.116;8.424;2024-01-07T14:30:33;26.40;41.50
22290;DHT22;11313;50.116;8.424;2024-01-07T14:32:58;26.40;41.40
22290;DHT22;11313;50.116;8.424;2024-01-07T14:35:24;26.50;41.50
22290;DHT22;11313;50.116;8.424;2024-01-07T14:37:51;26.40;41.50
22290;DHT22;11313;50.116;8.424;2024-01-07T14:40:18;26.40;41.50
22290;DHT22;11313;50.116;8.424;2024-01-07T14:42:43;26.40;41.60
22290;DHT22;11313;50.116;8.424;2024-01-07T14:45:09;26.40;41.60
22290;DHT22;11313;50.116;8.424;2024-01-07T14:47:34;26.40;41.70
22290;DHT22;11313;50.116;8.424;2024-01-07T14:50:00;26.40;41.70
22290;DHT22;11313;50.116;8.424;2024-01-07T14:52:29;26.40;41.70
22290;DHT22;11313;50.116;8.424;2024-01-07T14:54:54;26.40;41.70
22290;DHT22;11313;50.116;8.424;2024-01-07T14:57:20;26.30;41.70
22290;DHT22;11313;50.116;8.424;2024-01-07T14:59:45;26.30;41.70
22290;DHT22;11313;50.116;8.424;2024-01-07T15:02:11;26.40;41.60
22290;DHT22;11313;50.116;8.424;2024-01-07T15:04:36;26.30;41.50
22290;DHT22;11313;50.116;8.424;2024-01-07T15:07:02;26.40;41.70
22290;DHT22;11313;50.116;8.424;2024-01-07T15:09:27;26.30;41.60
22290;DHT22;11313;50.116;8.424;2024-01-07T15:11:54;26.30;42.30
22290;DHT22;11313;50.116;8.424;2024-01-07T15:14:20;26.20;41.70
22290;DHT22;11313;50.116;8.424;2024-01-07T15:16:45;26.40;41.90
22290;DHT22;11313;50.116;8.424;2024-01-07T15:19:17;26.30;41.80
22290;DHT22;11313;50.116;8.424;2024-01-07T15:21:42;26.30;41.80
22290;DHT22;11313;50.116;8.424;2024-01-07T15:24:08;26.30;41.80
22290;DHT22;11313;50.116;8.424;2024-01-07T15:26:34;26.30;41.80
22290;DHT22;11313;50.116;8.424;2024-01-07T15:29:01;26.30;41.80